createdAt,value
2018-03-18T00:01:42.150Z,57.60
2018-03-18T00:04:08.675Z,57.70
2018-03-18T00:06:35.173Z,57.60
2018-03-18T00:09:02.422Z,57.90
2018-03-18T00:11:28.934Z,58.50
2018-03-18T00:13:55.438Z,58.00
2018-03-18T00:16:21.879Z,58.10
2018-03-18T00:18:49.029Z,57.80
2018-03-18T00:21:15.479Z,57.80
2018-03-18T00:23:41.908Z,58.00
2018-03-18T00:26:09.100Z,58.10
2018-03-18T00:28:35.569Z,58.10
2018-03-18T00:31:02.115Z,58.00
2018-03-18T00:33:28.550Z,58.10
2018-03-18T00:35:54.946Z,58.20
2018-03-18T00:38:21.352Z,58.00
2018-03-18T00:40:47.849Z,58.10
2018-03-18T00:43:14.347Z,58.20
2018-03-18T00:45:40.796Z,58.20
2018-03-18T00:48:08.015Z,58.30
2018-03-18T00:50:34.514Z,58.30
2018-03-18T00:53:01.157Z,58.20
2018-03-18T00:55:27.551Z,57.90
2018-03-18T00:57:54.701Z,58.00
2018-03-18T01:00:21.986Z,58.20
2018-03-18T01:02:49.303Z,58.20
2018-03-18T01:05:16.489Z,58.30
2018-03-18T01:07:42.950Z,58.30
2018-03-18T01:10:09.390Z,58.70
2018-03-18T01:12:35.847Z,58.10
2018-03-18T01:15:02.268Z,58.00
2018-03-18T01:17:28.771Z,57.90
2018-03-18T01:19:55.193Z,57.50
2018-03-18T01:22:21.652Z,57.60
2018-03-18T01:24:49.031Z,57.30
2018-03-18T01:27:15.508Z,57.30
2018-03-18T01:29:41.948Z,57.20
2018-03-18T01:32:08.382Z,57.30
2018-03-18T01:34:35.639Z,58.10
2018-03-18T01:37:02.089Z,57.40
2018-03-18T01:39:28.566Z,57.60
2018-03-18T01:41:55.073Z,57.60
2018-03-18T01:44:21.551Z,58.00
2018-03-18T01:46:48.805Z,58.40
2018-03-18T01:49:15.977Z,58.80
2018-03-18T01:51:42.497Z,58.70
2018-03-18T01:54:08.950Z,58.70
2018-03-18T01:56:35.377Z,59.20
2018-03-18T01:59:01.890Z,59.50
2018-03-18T02:01:29.083Z,59.80
2018-03-18T02:03:55.476Z,59.70
2018-03-18T02:06:22.644Z,60.30
2018-03-18T02:08:49.093Z,60.20
2018-03-18T02:11:15.563Z,60.30
2018-03-18T02:13:41.989Z,60.30
2018-03-18T02:16:08.405Z,60.20
2018-03-18T02:18:34.810Z,60.50
2018-03-18T02:21:01.293Z,61.50
2018-03-18T02:23:27.729Z,60.50
2018-03-18T02:25:54.153Z,60.80
2018-03-18T02:28:21.273Z,61.40
2018-03-18T02:30:47.688Z,61.20
2018-03-18T02:33:14.155Z,61.30
2018-03-18T02:35:40.598Z,61.50
2018-03-18T02:38:07.125Z,62.40
2018-03-18T02:40:33.563Z,61.60
2018-03-18T02:42:59.988Z,61.50
2018-03-18T02:45:26.912Z,61.50
2018-03-18T02:47:53.341Z,61.40
2018-03-18T02:50:19.801Z,61.20
2018-03-18T02:52:46.311Z,61.70
2018-03-18T02:55:12.840Z,61.90
2018-03-18T02:57:39.287Z,62.00
2018-03-18T03:00:05.830Z,62.20
2018-03-18T03:02:32.246Z,62.30
2018-03-18T03:04:58.678Z,62.10
2018-03-18T03:07:25.839Z,62.40
2018-03-18T03:09:52.278Z,62.40
2018-03-18T03:12:18.716Z,62.60
2018-03-18T03:14:45.288Z,62.30
2018-03-18T03:17:11.713Z,62.30
2018-03-18T03:19:38.160Z,62.60
2018-03-18T03:22:04.644Z,63.10
2018-03-18T03:24:31.098Z,63.30
2018-03-18T03:26:58.333Z,63.70
2018-03-18T03:29:24.789Z,63.70
2018-03-18T03:31:51.304Z,63.70
2018-03-18T03:34:18.539Z,64.10
2018-03-18T03:36:45.198Z,64.00
2018-03-18T03:39:11.572Z,64.00
2018-03-18T03:41:37.961Z,64.00
2018-03-18T03:44:04.402Z,63.90
2018-03-18T03:46:31.333Z,64.10
2018-03-18T03:48:57.750Z,64.10
2018-03-18T03:51:24.161Z,64.40
2018-03-18T03:53:50.665Z,64.60
2018-03-18T03:56:17.113Z,64.50
2018-03-18T03:58:43.568Z,64.30
2018-03-18T04:01:10.154Z,64.30
2018-03-18T04:03:36.590Z,64.20
2018-03-18T04:06:03.072Z,64.20
2018-03-18T04:08:29.570Z,64.30
2018-03-18T04:10:56.097Z,64.30
2018-03-18T04:13:23.353Z,64.50
2018-03-18T04:15:49.768Z,64.40
2018-03-18T04:18:16.183Z,64.40
2018-03-18T04:20:43.336Z,64.70
2018-03-18T04:23:10.486Z,64.80
2018-03-18T04:25:37.046Z,64.80
2018-03-18T04:28:03.428Z,64.90
2018-03-18T04:30:29.910Z,64.90
2018-03-18T04:32:56.351Z,65.20
2018-03-18T04:35:22.792Z,65.30
2018-03-18T04:37:49.195Z,65.20
2018-03-18T04:40:15.668Z,65.40
2018-03-18T04:42:42.135Z,65.40
2018-03-18T04:45:08.568Z,65.60
2018-03-18T04:47:34.983Z,65.70
2018-03-18T04:50:01.453Z,65.90
2018-03-18T04:52:27.894Z,66.10
2018-03-18T04:54:54.322Z,66.00
2018-03-18T04:57:21.557Z,66.50
2018-03-18T04:59:47.990Z,66.30
2018-03-18T05:02:14.358Z,66.70
2018-03-18T05:04:40.789Z,66.70
2018-03-18T05:07:07.280Z,66.40
2018-03-18T05:09:33.805Z,66.80
2018-03-18T05:12:00.221Z,66.90
2018-03-18T05:14:26.629Z,66.40
2018-03-18T05:16:53.179Z,66.90
2018-03-18T05:19:19.636Z,66.90
2018-03-18T05:21:46.017Z,66.40
2018-03-18T05:24:13.223Z,65.70
2018-03-18T05:26:39.649Z,65.60
2018-03-18T05:29:06.101Z,65.40
2018-03-18T05:31:32.624Z,65.50
2018-03-18T05:33:59.106Z,65.40
2018-03-18T05:36:26.285Z,64.70
2018-03-18T05:38:52.771Z,64.70
2018-03-18T05:41:19.200Z,64.30
2018-03-18T05:43:45.742Z,64.00
2018-03-18T05:46:12.195Z,63.80
2018-03-18T05:48:38.688Z,64.30
2018-03-18T05:51:05.100Z,63.30
2018-03-18T05:53:31.511Z,63.10
2018-03-18T05:55:57.919Z,62.80
2018-03-18T05:58:25.202Z,61.80
2018-03-18T06:00:51.580Z,61.80
2018-03-18T06:03:18.784Z,60.70
2018-03-18T06:05:45.360Z,60.70
2018-03-18T06:08:11.848Z,57.80
2018-03-18T06:10:38.356Z,54.50
2018-03-18T06:13:04.818Z,52.20
2018-03-18T06:15:31.228Z,50.70
2018-03-18T06:17:57.780Z,50.60
2018-03-18T06:20:24.972Z,49.40
2018-03-18T06:22:51.397Z,49.30
2018-03-18T06:25:17.860Z,50.00
2018-03-18T06:27:44.368Z,49.80
2018-03-18T06:30:10.866Z,50.50
2018-03-18T06:32:37.353Z,50.70
2018-03-18T06:35:04.401Z,51.10
2018-03-18T06:37:31.083Z,50.90
2018-03-18T06:39:58.700Z,47.60
2018-03-18T06:42:25.692Z,47.60
2018-03-18T06:44:52.717Z,46.80
2018-03-18T06:47:19.157Z,45.20
2018-03-18T06:49:46.276Z,41.50
2018-03-18T06:52:12.701Z,41.50
2018-03-18T06:54:39.127Z,40.30
2018-03-18T06:57:05.547Z,39.90
2018-03-18T06:59:31.982Z,39.50
2018-03-18T07:01:58.413Z,37.80
2018-03-18T07:04:24.812Z,36.90
2018-03-18T07:06:51.340Z,35.00
2018-03-18T07:09:17.832Z,33.40
2018-03-18T07:11:44.256Z,32.00
2018-03-18T07:14:10.722Z,31.70
2018-03-18T07:16:37.860Z,29.70
2018-03-18T07:19:04.278Z,29.60
2018-03-18T07:21:30.809Z,31.00
2018-03-18T07:23:58.158Z,31.90
2018-03-18T07:26:29.197Z,31.40
2018-03-18T07:28:55.976Z,31.50
2018-03-18T07:31:22.431Z,30.40
2018-03-18T07:33:48.864Z,30.20
2018-03-18T07:36:15.270Z,29.60
2018-03-18T07:38:41.761Z,29.10
2018-03-18T07:41:08.200Z,29.40
2018-03-18T07:43:35.422Z,28.80
2018-03-18T07:46:01.924Z,28.80
2018-03-18T07:48:28.405Z,28.90
2018-03-18T07:50:55.666Z,29.90
2018-03-18T07:53:22.859Z,29.60
2018-03-18T07:55:49.303Z,29.50
2018-03-18T07:58:15.719Z,29.30
2018-03-18T08:00:42.125Z,29.70
2018-03-18T08:03:08.500Z,28.60
2018-03-18T08:05:35.066Z,27.60
2018-03-18T08:08:01.525Z,27.40
2018-03-18T08:10:28.822Z,26.10
2018-03-18T08:12:55.316Z,26.00
2018-03-18T08:15:21.776Z,26.50
2018-03-18T08:17:48.240Z,26.20
2018-03-18T08:20:14.699Z,26.60
2018-03-18T08:22:41.137Z,29.00
2018-03-18T08:25:07.558Z,31.00
2018-03-18T08:27:33.941Z,33.50
2018-03-18T08:30:00.490Z,35.00
2018-03-18T08:32:26.906Z,36.80
2018-03-18T08:34:53.374Z,37.70
2018-03-18T08:37:19.914Z,38.30
2018-03-18T08:39:46.359Z,38.70
2018-03-18T08:42:12.866Z,39.80
2018-03-18T08:44:39.331Z,40.00
2018-03-18T08:47:05.727Z,40.40
2018-03-18T08:49:32.136Z,40.30
2018-03-18T08:51:58.517Z,41.60
2018-03-18T08:54:24.934Z,41.00
2018-03-18T08:56:52.082Z,41.40
2018-03-18T08:59:18.668Z,41.40
2018-03-18T09:01:45.980Z,41.20
2018-03-18T09:04:12.432Z,41.20
2018-03-18T09:06:38.890Z,40.30
2018-03-18T09:09:05.463Z,40.20
2018-03-18T09:11:31.843Z,40.90
2018-03-18T09:13:58.263Z,41.70
2018-03-18T09:16:24.719Z,42.00
2018-03-18T09:18:51.157Z,42.00
2018-03-18T09:21:17.687Z,41.70
2018-03-18T09:23:44.104Z,41.80
2018-03-18T09:26:10.651Z,42.20
2018-03-18T09:28:37.723Z,42.30
2018-03-18T09:31:04.248Z,41.70
2018-03-18T09:33:30.679Z,41.50
2018-03-18T09:35:57.164Z,42.00
2018-03-18T09:38:23.650Z,42.00
2018-03-18T09:40:50.107Z,42.30
2018-03-18T09:43:16.597Z,42.20
2018-03-18T09:45:43.068Z,42.10
2018-03-18T09:48:09.888Z,42.30
2018-03-18T09:50:44.057Z,42.30
2018-03-18T09:53:11.371Z,42.40
2018-03-18T09:55:37.853Z,42.30
2018-03-18T09:58:04.349Z,42.10
2018-03-18T10:00:30.802Z,43.10
2018-03-18T10:02:57.266Z,42.70
2018-03-18T10:05:23.803Z,42.50
2018-03-18T10:07:50.245Z,42.60
2018-03-18T10:10:16.710Z,42.40
2018-03-18T10:12:43.286Z,42.30
2018-03-18T10:15:09.707Z,42.00
2018-03-18T10:17:36.260Z,41.50
2018-03-18T10:20:02.887Z,41.20
2018-03-18T10:22:29.266Z,41.60
2018-03-18T10:24:55.663Z,41.20
2018-03-18T10:27:22.111Z,41.20
2018-03-18T10:29:48.550Z,41.20
2018-03-18T10:32:14.950Z,41.30
2018-03-18T10:34:41.502Z,41.00
2018-03-18T10:37:07.937Z,41.00
2018-03-18T10:39:34.366Z,40.80
2018-03-18T10:42:00.970Z,40.70
2018-03-18T10:44:27.397Z,40.50
2018-03-18T10:46:54.582Z,40.10
2018-03-18T10:49:21.038Z,40.00
2018-03-18T10:51:47.644Z,40.60
2018-03-18T10:54:14.087Z,40.30
2018-03-18T10:56:41.406Z,40.30
2018-03-18T10:59:07.940Z,40.70
2018-03-18T11:01:40.630Z,40.30
2018-03-18T11:04:17.784Z,40.80
2018-03-18T11:06:44.402Z,40.80
2018-03-18T11:09:10.870Z,40.50
2018-03-18T11:11:38.157Z,40.40
2018-03-18T11:14:04.650Z,40.60
2018-03-18T11:16:31.156Z,40.20
2018-03-18T11:18:57.566Z,40.70
2018-03-18T11:21:24.120Z,41.10
2018-03-18T11:23:50.601Z,40.30
2018-03-18T11:26:16.979Z,39.20
2018-03-18T11:28:43.501Z,38.40
2018-03-18T11:31:09.975Z,38.50
2018-03-18T11:33:36.534Z,39.10
2018-03-18T11:36:02.981Z,39.20
2018-03-18T11:38:29.493Z,39.30
2018-03-18T11:40:55.889Z,39.40
2018-03-18T11:43:23.067Z,39.20
2018-03-18T11:45:49.482Z,39.20
2018-03-18T11:48:15.913Z,37.70
2018-03-18T11:50:42.377Z,37.90
2018-03-18T11:53:08.836Z,37.60
2018-03-18T11:55:36.013Z,37.80
2018-03-18T11:58:03.219Z,37.70
2018-03-18T12:00:29.769Z,37.60
2018-03-18T12:02:56.233Z,37.40
2018-03-18T12:05:22.678Z,37.20
2018-03-18T12:07:49.853Z,37.50
2018-03-18T12:10:16.252Z,37.50
2018-03-18T12:12:43.422Z,37.60
2018-03-18T12:15:09.867Z,37.60
2018-03-18T12:17:36.403Z,37.30
2018-03-18T12:20:03.193Z,37.30
2018-03-18T12:22:29.653Z,37.10
2018-03-18T12:24:56.767Z,37.10
2018-03-18T12:27:23.214Z,37.10
2018-03-18T12:29:49.664Z,37.20
2018-03-18T12:32:16.899Z,36.90
2018-03-18T12:34:44.224Z,36.90
2018-03-18T12:37:10.680Z,36.90
2018-03-18T12:39:49.209Z,37.00
2018-03-18T12:42:28.837Z,36.50
2018-03-18T12:44:55.290Z,36.50
2018-03-18T12:47:22.548Z,34.30
2018-03-18T12:49:49.033Z,34.20
2018-03-18T12:52:15.525Z,32.60
2018-03-18T12:54:42.751Z,30.00
2018-03-18T12:57:09.272Z,29.90
2018-03-18T12:59:35.750Z,29.40
2018-03-18T13:02:03.047Z,28.90
2018-03-18T13:04:29.575Z,28.80
2018-03-18T13:06:56.021Z,28.10
2018-03-18T13:09:22.542Z,27.60
2018-03-18T13:11:48.993Z,27.50
2018-03-18T13:14:15.426Z,27.40
2018-03-18T13:16:41.866Z,27.80
2018-03-18T13:19:08.351Z,28.40
2018-03-18T13:21:34.812Z,28.30
2018-03-18T13:24:01.211Z,27.80
2018-03-18T13:26:27.643Z,27.70
2018-03-18T13:28:54.923Z,28.40
2018-03-18T13:31:21.499Z,28.30
2018-03-18T13:33:48.242Z,28.40
2018-03-18T13:36:14.695Z,28.50
2018-03-18T13:38:41.257Z,29.10
2018-03-18T13:41:08.484Z,30.80
2018-03-18T13:43:34.929Z,30.70
2018-03-18T13:46:02.120Z,32.10
2018-03-18T13:48:28.469Z,32.10
2018-03-18T13:50:54.846Z,32.90
2018-03-18T13:53:21.285Z,33.10
2018-03-18T13:55:48.445Z,33.10
2018-03-18T13:58:14.953Z,33.10
2018-03-18T14:00:41.414Z,33.30
2018-03-18T14:03:07.906Z,33.30
2018-03-18T14:05:34.348Z,33.60
2018-03-18T14:08:00.813Z,33.40
2018-03-18T14:10:27.343Z,34.50
2018-03-18T14:12:54.536Z,34.60
2018-03-18T14:15:20.991Z,34.60
2018-03-18T14:17:47.505Z,34.10
2018-03-18T14:20:14.032Z,34.30
2018-03-18T14:22:41.172Z,33.30
2018-03-18T14:25:07.623Z,33.30
2018-03-18T14:27:34.034Z,33.90
2018-03-18T14:30:01.200Z,34.00
2018-03-18T14:32:27.601Z,34.00
2018-03-18T14:34:54.090Z,33.90
2018-03-18T14:37:20.580Z,33.10
2018-03-18T14:39:47.944Z,34.10
2018-03-18T14:42:15.095Z,33.70
2018-03-18T14:44:41.482Z,33.70
2018-03-18T14:47:07.959Z,33.30
2018-03-18T14:49:34.377Z,33.70
2018-03-18T14:52:01.554Z,34.80
2018-03-18T14:54:28.024Z,34.70
2018-03-18T14:56:54.560Z,34.70
2018-03-18T14:59:21.032Z,34.50
2018-03-18T15:01:47.489Z,35.20
2018-03-18T15:04:13.993Z,35.50
2018-03-18T15:06:40.531Z,35.70
2018-03-18T15:09:07.821Z,35.60
2018-03-18T15:11:34.283Z,35.00
2018-03-18T15:14:00.847Z,35.10
2018-03-18T15:16:28.131Z,35.80
2018-03-18T15:18:54.590Z,35.70
2018-03-18T15:21:21.117Z,35.60
2018-03-18T15:23:48.432Z,35.50
2018-03-18T15:26:16.586Z,36.20
2018-03-18T15:28:43.074Z,36.10
2018-03-18T15:31:09.557Z,36.70
2018-03-18T15:33:36.010Z,36.80
2018-03-18T15:36:02.583Z,35.70
2018-03-18T15:38:29.051Z,35.80
2018-03-18T15:40:55.490Z,36.70
2018-03-18T15:43:21.952Z,37.10
2018-03-18T15:45:49.140Z,36.60
2018-03-18T15:48:15.600Z,36.60
2018-03-18T15:50:42.799Z,37.40
2018-03-18T15:53:09.246Z,37.40
2018-03-18T15:55:35.710Z,37.30
2018-03-18T15:58:02.088Z,37.70
2018-03-18T16:00:29.344Z,37.30
2018-03-18T16:02:55.687Z,37.20
2018-03-18T16:05:23.763Z,37.50
2018-03-18T16:07:50.256Z,37.50
2018-03-18T16:10:16.780Z,38.50
2018-03-18T16:12:44.236Z,37.90
2018-03-18T16:15:11.475Z,38.10
2018-03-18T16:17:37.926Z,38.10
2018-03-18T16:20:04.389Z,38.10
2018-03-18T16:22:31.619Z,38.70
2018-03-18T16:24:58.150Z,38.70
2018-03-18T16:27:24.621Z,38.50
2018-03-18T16:30:04.091Z,38.90
2018-03-18T16:32:30.653Z,38.90
2018-03-18T16:34:57.160Z,39.00
2018-03-18T16:37:23.561Z,39.50
2018-03-18T16:39:50.756Z,39.40
2018-03-18T16:42:17.227Z,39.30
2018-03-18T16:44:43.688Z,39.50
2018-03-18T16:47:10.125Z,39.50
2018-03-18T16:49:37.321Z,40.60
2018-03-18T16:52:03.792Z,40.40
2018-03-18T16:54:30.315Z,40.10
2018-03-18T16:56:56.789Z,40.20
2018-03-18T16:59:23.415Z,40.40
2018-03-18T17:01:49.848Z,40.80
2018-03-18T17:04:17.066Z,41.30
2018-03-18T17:06:43.573Z,41.30
2018-03-18T17:09:10.008Z,41.70
2018-03-18T17:11:36.500Z,41.50
2018-03-18T17:14:03.668Z,41.60
2018-03-18T17:16:30.094Z,41.60
2018-03-18T17:18:56.540Z,41.80
2018-03-18T17:21:22.961Z,42.20
2018-03-18T17:23:49.384Z,42.20
2018-03-18T17:26:15.825Z,42.50
2018-03-18T17:28:42.229Z,42.70
2018-03-18T17:31:08.665Z,42.80
2018-03-18T17:33:35.121Z,42.80
2018-03-18T17:36:02.405Z,43.70
2018-03-18T17:38:28.802Z,43.70
2018-03-18T17:40:55.221Z,43.50
2018-03-18T17:43:21.670Z,43.50
2018-03-18T17:46:00.901Z,44.00
2018-03-18T17:48:40.105Z,44.00
2018-03-18T17:51:18.688Z,44.00
2018-03-18T17:53:57.274Z,44.30
2018-03-18T17:56:33.755Z,44.50
2018-03-18T17:59:00.259Z,44.50
2018-03-18T18:01:26.710Z,44.80
2018-03-18T18:03:53.181Z,45.00
2018-03-18T18:06:19.765Z,45.40
2018-03-18T18:08:46.289Z,45.60
2018-03-18T18:11:12.707Z,45.70
2018-03-18T18:13:39.162Z,46.10
2018-03-18T18:16:06.429Z,46.10
2018-03-18T18:18:33.602Z,46.30
2018-03-18T18:21:00.035Z,46.20
2018-03-18T18:23:26.544Z,46.40
2018-03-18T18:25:53.832Z,46.90
2018-03-18T18:28:20.414Z,46.90
2018-03-18T18:30:46.873Z,46.80
2018-03-18T18:33:13.311Z,46.80
2018-03-18T18:35:40.890Z,46.70
2018-03-18T18:38:07.417Z,46.60
2018-03-18T18:40:34.615Z,47.20
2018-03-18T18:43:01.192Z,47.20
2018-03-18T18:45:28.607Z,47.50
2018-03-18T18:47:55.231Z,47.40
2018-03-18T18:50:21.853Z,47.60
2018-03-18T18:52:49.202Z,48.00
2018-03-18T18:55:15.819Z,48.00
2018-03-18T18:57:43.081Z,48.20
2018-03-18T19:00:10.292Z,49.00
2018-03-18T19:02:36.805Z,48.30
2018-03-18T19:05:03.457Z,48.40
2018-03-18T19:07:29.861Z,48.20
2018-03-18T19:09:56.348Z,48.00
2018-03-18T19:12:23.723Z,48.50
2018-03-18T19:14:50.898Z,48.40
2018-03-18T19:17:17.322Z,48.40
2018-03-18T19:19:44.675Z,48.60
2018-03-18T19:22:11.375Z,48.60
2018-03-18T19:24:37.829Z,48.60
2018-03-18T19:27:04.398Z,48.60
2018-03-18T19:29:30.861Z,48.60
2018-03-18T19:31:57.385Z,48.60
2018-03-18T19:34:24.633Z,48.60
2018-03-18T19:36:51.428Z,48.60
2018-03-18T19:39:18.695Z,48.80
2018-03-18T19:41:45.889Z,48.70
2018-03-18T19:44:12.527Z,48.70
2018-03-18T19:46:39.036Z,48.80
2018-03-18T19:49:05.670Z,49.20
2018-03-18T19:51:32.278Z,49.30
2018-03-18T19:53:58.748Z,49.50
2018-03-18T19:56:25.278Z,49.80
2018-03-18T19:58:52.521Z,50.10
2018-03-18T20:01:19.813Z,50.50
2018-03-18T20:03:46.596Z,50.40
2018-03-18T20:06:13.004Z,50.70
2018-03-18T20:08:39.567Z,50.80
2018-03-18T20:11:05.989Z,50.80
2018-03-18T20:13:32.633Z,50.70
2018-03-18T20:15:59.256Z,50.90
2018-03-18T20:18:26.069Z,51.20
2018-03-18T20:20:53.558Z,51.50
2018-03-18T20:23:20.083Z,51.50
2018-03-18T20:25:46.629Z,51.50
2018-03-18T20:28:13.095Z,51.60
2018-03-18T20:30:39.544Z,51.60
2018-03-18T20:33:06.251Z,51.80
2018-03-18T20:35:33.859Z,52.00
2018-03-18T20:38:00.646Z,51.80
2018-03-18T20:40:27.229Z,51.60
2018-03-18T20:42:53.691Z,51.80
2018-03-18T20:45:20.241Z,51.90
2018-03-18T20:47:46.737Z,52.20
2018-03-18T20:50:13.969Z,52.50
2018-03-18T20:52:40.444Z,52.50
2018-03-18T20:55:08.275Z,52.50
2018-03-18T20:57:34.739Z,52.70
2018-03-18T21:00:01.154Z,52.90
2018-03-18T21:02:28.393Z,53.00
2018-03-18T21:04:55.580Z,53.00
2018-03-18T21:07:22.773Z,52.90
2018-03-18T21:09:49.286Z,52.80
2018-03-18T21:12:15.759Z,53.20
2018-03-18T21:14:42.237Z,53.40
2018-03-18T21:17:08.830Z,53.90
2018-03-18T21:19:35.293Z,53.90
2018-03-18T21:22:01.736Z,53.90
2018-03-18T21:24:28.228Z,54.10
2018-03-18T21:26:54.697Z,54.10
2018-03-18T21:29:21.126Z,54.20
2018-03-18T21:31:47.703Z,54.20
2018-03-18T21:34:14.159Z,54.20
2018-03-18T21:36:40.567Z,54.10
2018-03-18T21:39:07.065Z,53.70
2018-03-18T21:41:33.491Z,53.80
2018-03-18T21:44:01.083Z,54.00
2018-03-18T21:46:27.449Z,54.00
2018-03-18T21:48:53.913Z,54.20
2018-03-18T21:51:20.427Z,54.10
2018-03-18T21:53:48.117Z,54.60
2018-03-18T21:56:14.965Z,54.50
2018-03-18T21:58:43.370Z,54.50
2018-03-18T22:01:09.892Z,54.50
2018-03-18T22:03:36.548Z,54.40
2018-03-18T22:06:03.077Z,54.60
2018-03-18T22:08:29.640Z,54.90
2018-03-18T22:10:56.040Z,54.90
2018-03-18T22:13:22.519Z,55.00
2018-03-18T22:15:48.913Z,55.00
2018-03-18T22:18:15.357Z,55.00
2018-03-18T22:20:41.837Z,55.00
2018-03-18T22:23:08.320Z,55.00
2018-03-18T22:25:34.721Z,55.10
2018-03-18T22:28:01.991Z,55.10
2018-03-18T22:30:28.487Z,55.00
2018-03-18T22:32:54.920Z,55.20
2018-03-18T22:35:21.312Z,55.10
2018-03-18T22:37:47.764Z,55.40
2018-03-18T22:40:14.283Z,55.40
2018-03-18T22:42:40.715Z,55.40
2018-03-18T22:45:07.316Z,55.50
2018-03-18T22:47:34.480Z,55.40
2018-03-18T22:50:00.905Z,55.30
2018-03-18T22:52:28.199Z,55.50
2018-03-18T22:54:54.664Z,55.50
2018-03-18T22:57:21.114Z,55.40
2018-03-18T22:59:47.690Z,55.30
2018-03-18T23:02:14.149Z,55.20
2018-03-18T23:04:40.650Z,55.30
2018-03-18T23:07:07.122Z,55.30
2018-03-18T23:09:33.532Z,55.30
2018-03-18T23:12:00.035Z,55.10
2018-03-18T23:14:27.204Z,55.40
2018-03-18T23:16:53.682Z,55.30
2018-03-18T23:19:20.129Z,55.30
2018-03-18T23:21:46.593Z,55.50
2018-03-18T23:24:13.052Z,55.60
2018-03-18T23:26:39.503Z,55.70
2018-03-18T23:29:06.042Z,55.80
2018-03-18T23:31:32.455Z,55.80
2018-03-18T23:33:59.610Z,55.90
2018-03-18T23:36:26.118Z,55.80
2018-03-18T23:38:52.660Z,55.90
2018-03-18T23:41:19.207Z,55.80
2018-03-18T23:43:45.762Z,55.90
2018-03-18T23:46:12.232Z,56.10
2018-03-18T23:48:38.827Z,56.10
2018-03-18T23:51:05.301Z,56.20
2018-03-18T23:53:31.789Z,56.10
2018-03-18T23:55:58.245Z,56.20
2018-03-18T23:58:25.520Z,56.40
